Tuesday, October 21, 2014
05:32 UTC
  |  Log In   |  Register Free
Airport Search:

Modesto City-Co-Harry Sham Fld Airport
(KMOD)

FAA data valid effective September 18, 2014 - November 13, 2014 (unless otherwise noted).

 
 
 
 
 
 
 
 
 
 
 
 
 
 

Current Aviation Weather for Modesto City-Co-Harry Sham Fld Airport (KMOD)

The most recent METAR observation for KMOD was updated at: 0524
METAR Summary (Translated METAR)
KMOD
210453Z AUTO 30009KT 10SM FEW070 17/11 A3002 RMK AO2 SLP167 T01720106
KSCK
210455Z AUTO 26006KT 10SM CLR 16/09 A3002 RMK AO2 SLP166 T01560094
(21 nm NW from KMOD)
KMER
210455Z AUTO 01009KT 10SM OVC050 18/11 A3002 RMK AO1
(23.5 nm SE from KMOD)
TAF Summary (Translated TAF)
KSCK
(21 nm NW from KMOD)
210524Z 2106/2206 27006KT P6SM SKC FM211900 31011KT P6SM SCT250 FM220300 28007KT P6SM SCT250
KMER
(23.5 nm SE from KMOD)
210520Z 2106/2206 36010KT P6SM BKN050 OVC100 FM211400 31008KT P6SM FEW050 SCT100 FM212100 32012KT P6SM SKC
  Airport Weather Conditions for KMOD

 Current Weather at MOD
63° F
A Few Clouds
Northwest winds at 10.4 mph
MOD NOAA Radar

Pressure: 30.02 in
Humidity: 65%
Wind: Northwest at 10.4 MPH (9 KT)
Dew Point: 51.1°F
Visibility: 10.00 mi


Airport Weather Forecast for KMOD

Translated METAR and TAF for KMOD
Translated METAR for KMOD (0527 UTC 21 October 2014)
found at http://aviationweather.gov/adds/metars/
 
METAR text: KMOD 210453Z AUTO 30009KT 10SM FEW070 17/11 A3002 RMK AO2 SLP167 T01720106
Conditions at: KMOD (MODESTO , CA, US) observed 0453 UTC 21 October 2014
Temperature: 17.2°C (63°F)
Dewpoint: 10.6°C (51°F) [RH = 65%]
Pressure (altimeter): 30.02 inches Hg (1016.7 mb)
[Sea-level pressure: 1016.7 mb]
Winds: from the WNW (300 degrees) at 10 MPH (9 knots; 4.7 m/s)
Visibility: 10 or more miles (16+ km)
Ceiling: at least 12,000 feet AGL
Clouds: few clouds at 7000 feet AGL
Weather: automated observation with no human augmentation;
there may or may not be significant weather present at this time
Translated TAF for KMOD

There is no translated TAF available for this airport

Find All Airport Services Find A Hotel Find A Rental Car Find A Golf Course Find A Restaurant $100 Hamburger



FBO's on the Field
FBO Company Facility Photos Services Transportation Aviation Fuel Prices: Prices include tax
Catering Weather Repair Courtesy Rental Type 100LL JetA JetA+ MOGAS 8087
 
Sky Trek Aviation

This FBO has not yet been rated
FS:Avfuel
Last Updated: Oct-07
Login to update fuel prices
SS:
Contact Sky Trek AviationMore FBO Information
 
Add another FBO Facility Photos Catering Weather Repair Courtesy Rental Type 100LL JetA JetA+ MOGAS 8087
Services Transportation Aviation Fuel Prices: Prices include tax


model-print
model-print
model-print
model-print